Auburn, IN (46706)

12:11 PM EDT on August 30, 2014 (GMT -0400)
East Memorial Park | Change Station
CLOSE
Current Station
Personal Weather Station
Location: Auburn, IN
Elevation: 866 ft
Nearby Weather Stations

Elev 866 ft 41.36 °N, 85.06 °W | Updated 43 seconds ago

Clear
Clear
77.9 °F
Feels Like 80 °F
N
0.0
Wind Variable Wind from WSW
Gusts 12.0 mph

Today
High -- | Low -- °F
--% Chance of Precip.
Yesterday
High -- | Low -- °F
Precip. -- in
7:04 AM 8:16 PM
Waxing Crescent, 23% visible
Pressure 29.98 in
Visibility 10.0 miles
Clouds Clear
Heat Index 80 °F
Dew Point 70 °F
Humidity 77%
Rainfall 0.00 in
Snow Depth Not available.
UV 8 out of 12
Pollen 9.50 out of 12
Air Quality Not available.
Flu Activity Not available.
METAR KGWB 301555Z AUTO 21010G15KT 10SM CLR 26/18 A2998 RMK AO2

More Conditions Fewer Conditions

Pressure 29.98 in
Visibility 10.0 miles
Clouds Clear
Heat Index 80 °F
Dew Point 70 °F
Humidity 77%
Rainfall 0.00 in
Snow Depth Not available.
UV 8 out of 12
Pollen 9.50 out of 12
Air Quality Not available.
Flu Activity Not available.
METAR KGWB 301555Z AUTO 21010G15KT 10SM CLR 26/18 A2998 RMK AO2

More Conditions Fewer Conditions

10-Day Weather Forecast

Almanac

Astronomy

Aug. 30, 2014 Rise Set
Actual Time 7:04 AM EDT 8:16 PM EDT
Civil Twilight 6:35 AM EDT 8:44 PM EDT
Nautical Twilight 6:01 AM EDT 9:18 PM EDT
Astronomical Twilight 5:25 AM EDT 9:54 PM EDT
Moon 11:54 AM EDT 10:46 PM EDT
Length of Visible Light 14h 08m
Length of Day
13h 11m
Tomorrow will be 2m 39s shorter.
Waxing Crescent, 23% of the Moon is Illuminated
Today
Waxing Crescent
Sep 2
First Quarter
Sep 8
Full
Sep 15
Last Quarter
Sep 24
New

Today's Extremes

State Highs State Lows

Community

WunderPhotos

Upload Photos

1,748,556 photos uploaded!

WunderBlogs® & News

Nearby

Snow Depth

Station Depth Elevation
No new snow has been reported.

Earthquake Activity

City Distance Mag. Time & Date
No recent earthquake activity has been reported nearby.
Minimum magnitude displayed is 2.5.

Coastal Water Temperatures

Place Temperature
No Stations Reporting

Nearby Weather Stations